sensor_id;sensor_type;location;lat;lon;timestamp;temperature;humidity
26270;DHT22;15937;50.612;6.656;2022-08-19T00:01:58;18.10;99.90
26270;DHT22;15937;50.612;6.656;2022-08-19T00:06:00;18.20;99.90
26270;DHT22;15937;50.612;6.656;2022-08-19T00:10:02;18.20;99.90
26270;DHT22;15937;50.612;6.656;2022-08-19T00:14:05;18.10;99.90
26270;DHT22;15937;50.612;6.656;2022-08-19T00:18:07;18.00;99.90
26270;DHT22;15937;50.612;6.656;2022-08-19T00:22:09;17.80;99.90
26270;DHT22;15937;50.612;6.656;2022-08-19T00:26:11;17.80;99.90
26270;DHT22;15937;50.612;6.656;2022-08-19T00:30:12;17.90;99.90
26270;DHT22;15937;50.612;6.656;2022-08-19T00:34:14;18.00;99.90
26270;DHT22;15937;50.612;6.656;2022-08-19T00:38:16;17.90;99.90
26270;DHT22;15937;50.612;6.656;2022-08-19T00:42:35;17.90;99.90
26270;DHT22;15937;50.612;6.656;2022-08-19T00:46:38;17.80;99.90
26270;DHT22;15937;50.612;6.656;2022-08-19T00:50:40;17.80;99.90
26270;DHT22;15937;50.612;6.656;2022-08-19T00:54:52;17.70;99.90
26270;DHT22;15937;50.612;6.656;2022-08-19T00:58:54;17.70;99.90
26270;DHT22;15937;50.612;6.656;2022-08-19T01:02:57;17.70;99.90
26270;DHT22;15937;50.612;6.656;2022-08-19T01:06:59;17.60;99.90
26270;DHT22;15937;50.612;6.656;2022-08-19T01:11:02;17.60;99.90
26270;DHT22;15937;50.612;6.656;2022-08-19T01:15:06;17.70;99.90
26270;DHT22;15937;50.612;6.656;2022-08-19T01:19:18;17.70;99.90
26270;DHT22;15937;50.612;6.656;2022-08-19T01:23:26;17.60;99.90
26270;DHT22;15937;50.612;6.656;2022-08-19T01:27:45;17.50;99.90
26270;DHT22;15937;50.612;6.656;2022-08-19T01:31:54;17.50;99.90
26270;DHT22;15937;50.612;6.656;2022-08-19T01:36:03;17.50;99.90
26270;DHT22;15937;50.612;6.656;2022-08-19T01:40:05;17.50;99.90
26270;DHT22;15937;50.612;6.656;2022-08-19T01:44:10;17.40;99.90
26270;DHT22;15937;50.612;6.656;2022-08-19T01:48:19;17.50;99.90
26270;DHT22;15937;50.612;6.656;2022-08-19T01:52:21;17.50;99.90
26270;DHT22;15937;50.612;6.656;2022-08-19T01:56:22;17.50;99.90
26270;DHT22;15937;50.612;6.656;2022-08-19T02:00:26;17.60;99.90
26270;DHT22;15937;50.612;6.656;2022-08-19T02:04:28;17.60;99.90
26270;DHT22;15937;50.612;6.656;2022-08-19T02:08:30;17.60;99.90
26270;DHT22;15937;50.612;6.656;2022-08-19T02:12:33;17.50;99.90
26270;DHT22;15937;50.612;6.656;2022-08-19T02:16:38;17.40;99.90
26270;DHT22;15937;50.612;6.656;2022-08-19T02:20:40;17.40;99.90
26270;DHT22;15937;50.612;6.656;2022-08-19T02:24:42;17.40;99.90
26270;DHT22;15937;50.612;6.656;2022-08-19T02:28:43;17.40;99.90
26270;DHT22;15937;50.612;6.656;2022-08-19T02:32:45;17.50;99.90
26270;DHT22;15937;50.612;6.656;2022-08-19T02:36:47;17.50;99.90
26270;DHT22;15937;50.612;6.656;2022-08-19T02:40:54;17.40;99.90
26270;DHT22;15937;50.612;6.656;2022-08-19T02:44:56;17.40;99.90
26270;DHT22;15937;50.612;6.656;2022-08-19T02:49:00;17.40;99.90
26270;DHT22;15937;50.612;6.656;2022-08-19T02:53:03;17.30;99.90
26270;DHT22;15937;50.612;6.656;2022-08-19T02:57:04;17.30;99.90
26270;DHT22;15937;50.612;6.656;2022-08-19T03:01:07;17.40;99.90
26270;DHT22;15937;50.612;6.656;2022-08-19T03:05:09;17.50;99.90
26270;DHT22;15937;50.612;6.656;2022-08-19T03:09:11;17.50;99.90
26270;DHT22;15937;50.612;6.656;2022-08-19T03:13:14;17.60;99.90
26270;DHT22;15937;50.612;6.656;2022-08-19T03:17:17;17.50;99.90
26270;DHT22;15937;50.612;6.656;2022-08-19T03:21:20;17.20;99.90
26270;DHT22;15937;50.612;6.656;2022-08-19T03:25:22;17.10;99.90
26270;DHT22;15937;50.612;6.656;2022-08-19T03:29:25;17.20;99.90
26270;DHT22;15937;50.612;6.656;2022-08-19T03:33:32;17.20;99.90
26270;DHT22;15937;50.612;6.656;2022-08-19T03:37:35;17.20;99.90
26270;DHT22;15937;50.612;6.656;2022-08-19T03:41:37;17.00;99.90
26270;DHT22;15937;50.612;6.656;2022-08-19T03:45:46;17.00;99.90
26270;DHT22;15937;50.612;6.656;2022-08-19T03:49:50;17.00;99.90
26270;DHT22;15937;50.612;6.656;2022-08-19T03:53:52;17.00;99.90
26270;DHT22;15937;50.612;6.656;2022-08-19T03:57:56;16.90;99.90
26270;DHT22;15937;50.612;6.656;2022-08-19T04:02:00;17.00;99.90
26270;DHT22;15937;50.612;6.656;2022-08-19T04:06:12;16.90;99.90
26270;DHT22;15937;50.612;6.656;2022-08-19T04:10:14;16.80;99.90
26270;DHT22;15937;50.612;6.656;2022-08-19T04:14:17;16.90;99.90
26270;DHT22;15937;50.612;6.656;2022-08-19T04:18:20;16.90;99.90
26270;DHT22;15937;50.612;6.656;2022-08-19T04:22:21;16.90;99.90
26270;DHT22;15937;50.612;6.656;2022-08-19T04:26:29;16.90;99.90
26270;DHT22;15937;50.612;6.656;2022-08-19T04:30:53;16.80;99.90
26270;DHT22;15937;50.612;6.656;2022-08-19T04:34:55;16.80;99.90
26270;DHT22;15937;50.612;6.656;2022-08-19T04:39:20;16.80;99.90
26270;DHT22;15937;50.612;6.656;2022-08-19T04:43:22;16.80;99.90
26270;DHT22;15937;50.612;6.656;2022-08-19T04:47:25;16.80;99.90
26270;DHT22;15937;50.612;6.656;2022-08-19T04:51:47;16.80;99.90
26270;DHT22;15937;50.612;6.656;2022-08-19T04:55:49;16.90;99.90
26270;DHT22;15937;50.612;6.656;2022-08-19T04:59:53;16.90;99.90
26270;DHT22;15937;50.612;6.656;2022-08-19T05:03:55;16.90;99.90
26270;DHT22;15937;50.612;6.656;2022-08-19T05:07:57;16.90;99.90
26270;DHT22;15937;50.612;6.656;2022-08-19T05:11:59;17.00;99.90
26270;DHT22;15937;50.612;6.656;2022-08-19T05:16:01;17.00;99.90
26270;DHT22;15937;50.612;6.656;2022-08-19T05:20:04;17.20;99.90
26270;DHT22;15937;50.612;6.656;2022-08-19T05:24:24;17.30;99.90
26270;DHT22;15937;50.612;6.656;2022-08-19T05:28:28;17.30;99.90
26270;DHT22;15937;50.612;6.656;2022-08-19T05:32:31;17.40;99.90
26270;DHT22;15937;50.612;6.656;2022-08-19T05:36:35;17.60;99.90
26270;DHT22;15937;50.612;6.656;2022-08-19T05:40:37;17.60;99.90
26270;DHT22;15937;50.612;6.656;2022-08-19T05:44:40;17.60;99.90
26270;DHT22;15937;50.612;6.656;2022-08-19T05:48:46;17.60;99.90
26270;DHT22;15937;50.612;6.656;2022-08-19T05:52:47;17.50;99.90
26270;DHT22;15937;50.612;6.656;2022-08-19T05:56:52;17.70;99.90
26270;DHT22;15937;50.612;6.656;2022-08-19T06:00:56;18.00;99.90
26270;DHT22;15937;50.612;6.656;2022-08-19T06:04:58;18.00;99.90
26270;DHT22;15937;50.612;6.656;2022-08-19T06:09:01;18.20;99.90
26270;DHT22;15937;50.612;6.656;2022-08-19T06:13:05;18.30;99.90
26270;DHT22;15937;50.612;6.656;2022-08-19T06:17:09;18.50;99.90
26270;DHT22;15937;50.612;6.656;2022-08-19T06:21:11;18.60;99.90
26270;DHT22;15937;50.612;6.656;2022-08-19T06:25:15;18.70;99.90
26270;DHT22;15937;50.612;6.656;2022-08-19T06:29:19;18.80;99.90
26270;DHT22;15937;50.612;6.656;2022-08-19T06:33:24;19.10;99.90
26270;DHT22;15937;50.612;6.656;2022-08-19T06:37:26;18.90;99.90
26270;DHT22;15937;50.612;6.656;2022-08-19T06:41:28;19.30;99.90
26270;DHT22;15937;50.612;6.656;2022-08-19T06:45:31;19.60;99.90
26270;DHT22;15937;50.612;6.656;2022-08-19T06:49:36;19.70;99.90
26270;DHT22;15937;50.612;6.656;2022-08-19T06:53:37;19.90;99.90
26270;DHT22;15937;50.612;6.656;2022-08-19T06:57:41;19.70;99.90
26270;DHT22;15937;50.612;6.656;2022-08-19T07:01:46;19.90;99.90
26270;DHT22;15937;50.612;6.656;2022-08-19T07:05:48;20.20;99.90
26270;DHT22;15937;50.612;6.656;2022-08-19T07:09:50;20.10;99.90
26270;DHT22;15937;50.612;6.656;2022-08-19T07:14:02;20.20;99.90
26270;DHT22;15937;50.612;6.656;2022-08-19T07:18:04;20.40;99.90
26270;DHT22;15937;50.612;6.656;2022-08-19T07:22:07;20.40;99.90
26270;DHT22;15937;50.612;6.656;2022-08-19T07:30:15;20.20;99.90
26270;DHT22;15937;50.612;6.656;2022-08-19T07:34:18;20.20;99.90
26270;DHT22;15937;50.612;6.656;2022-08-19T07:38:20;20.40;99.90
26270;DHT22;15937;50.612;6.656;2022-08-19T07:42:22;20.40;99.90
26270;DHT22;15937;50.612;6.656;2022-08-19T07:46:23;20.50;99.90
26270;DHT22;15937;50.612;6.656;2022-08-19T07:50:25;20.50;99.90
26270;DHT22;15937;50.612;6.656;2022-08-19T07:54:28;20.30;99.90
26270;DHT22;15937;50.612;6.656;2022-08-19T07:58:30;20.40;99.90
26270;DHT22;15937;50.612;6.656;2022-08-19T08:02:32;20.30;99.90
26270;DHT22;15937;50.612;6.656;2022-08-19T08:06:34;20.30;99.90
26270;DHT22;15937;50.612;6.656;2022-08-19T08:10:54;20.40;99.90
26270;DHT22;15937;50.612;6.656;2022-08-19T08:14:59;20.30;99.90
26270;DHT22;15937;50.612;6.656;2022-08-19T08:19:04;20.30;99.90
26270;DHT22;15937;50.612;6.656;2022-08-19T08:23:15;20.40;99.90
26270;DHT22;15937;50.612;6.656;2022-08-19T08:27:33;20.50;99.90
26270;DHT22;15937;50.612;6.656;2022-08-19T08:31:40;20.80;99.90
26270;DHT22;15937;50.612;6.656;2022-08-19T08:35:42;20.80;99.90
26270;DHT22;15937;50.612;6.656;2022-08-19T08:39:44;21.20;99.90
26270;DHT22;15937;50.612;6.656;2022-08-19T08:43:46;21.90;99.90
26270;DHT22;15937;50.612;6.656;2022-08-19T08:47:49;22.00;99.90
26270;DHT22;15937;50.612;6.656;2022-08-19T08:51:54;22.00;99.90
26270;DHT22;15937;50.612;6.656;2022-08-19T08:56:04;22.20;99.90
26270;DHT22;15937;50.612;6.656;2022-08-19T09:00:09;22.60;99.90
26270;DHT22;15937;50.612;6.656;2022-08-19T09:04:16;22.30;99.90
26270;DHT22;15937;50.612;6.656;2022-08-19T09:12:45;22.90;99.90
26270;DHT22;15937;50.612;6.656;2022-08-19T09:16:52;23.00;99.90
26270;DHT22;15937;50.612;6.656;2022-08-19T09:20:54;22.90;99.90
26270;DHT22;15937;50.612;6.656;2022-08-19T09:24:57;22.90;99.90
26270;DHT22;15937;50.612;6.656;2022-08-19T09:28:59;23.00;99.90
26270;DHT22;15937;50.612;6.656;2022-08-19T09:33:01;23.20;99.90
26270;DHT22;15937;50.612;6.656;2022-08-19T09:37:02;23.10;99.90
26270;DHT22;15937;50.612;6.656;2022-08-19T09:41:05;22.80;99.90
26270;DHT22;15937;50.612;6.656;2022-08-19T09:45:07;23.40;99.90
26270;DHT22;15937;50.612;6.656;2022-08-19T09:49:10;23.20;99.90
26270;DHT22;15937;50.612;6.656;2022-08-19T09:53:13;22.80;99.90
26270;DHT22;15937;50.612;6.656;2022-08-19T09:57:16;23.00;99.90
26270;DHT22;15937;50.612;6.656;2022-08-19T10:01:25;23.40;99.90
26270;DHT22;15937;50.612;6.656;2022-08-19T10:05:27;23.50;99.90
26270;DHT22;15937;50.612;6.656;2022-08-19T10:09:49;23.50;99.90
26270;DHT22;15937;50.612;6.656;2022-08-19T10:13:51;23.30;99.90
26270;DHT22;15937;50.612;6.656;2022-08-19T10:17:52;23.30;99.90
26270;DHT22;15937;50.612;6.656;2022-08-19T10:21:56;23.50;99.90
26270;DHT22;15937;50.612;6.656;2022-08-19T10:26:01;24.30;99.90
26270;DHT22;15937;50.612;6.656;2022-08-19T10:30:03;24.30;99.90
26270;DHT22;15937;50.612;6.656;2022-08-19T10:34:11;24.90;99.90
26270;DHT22;15937;50.612;6.656;2022-08-19T10:38:28;24.40;99.90
26270;DHT22;15937;50.612;6.656;2022-08-19T10:42:32;23.90;99.90
26270;DHT22;15937;50.612;6.656;2022-08-19T10:46:35;23.90;99.90
26270;DHT22;15937;50.612;6.656;2022-08-19T10:50:38;23.70;99.90
26270;DHT22;15937;50.612;6.656;2022-08-19T10:55:03;24.00;99.90
26270;DHT22;15937;50.612;6.656;2022-08-19T10:59:30;24.40;99.90
26270;DHT22;15937;50.612;6.656;2022-08-19T11:03:36;24.30;99.90
26270;DHT22;15937;50.612;6.656;2022-08-19T11:07:39;24.70;99.90
26270;DHT22;15937;50.612;6.656;2022-08-19T11:11:41;25.00;99.90
26270;DHT22;15937;50.612;6.656;2022-08-19T11:15:43;25.00;99.90
26270;DHT22;15937;50.612;6.656;2022-08-19T11:19:45;24.70;99.90
26270;DHT22;15937;50.612;6.656;2022-08-19T11:23:50;24.90;99.90
26270;DHT22;15937;50.612;6.656;2022-08-19T11:27:52;25.40;99.90
26270;DHT22;15937;50.612;6.656;2022-08-19T11:31:54;25.10;99.90
26270;DHT22;15937;50.612;6.656;2022-08-19T11:35:59;24.90;99.90
26270;DHT22;15937;50.612;6.656;2022-08-19T11:40:03;24.80;99.90
26270;DHT22;15937;50.612;6.656;2022-08-19T11:44:05;25.00;99.90
26270;DHT22;15937;50.612;6.656;2022-08-19T11:48:10;25.10;99.90
26270;DHT22;15937;50.612;6.656;2022-08-19T11:52:12;25.20;99.90
26270;DHT22;15937;50.612;6.656;2022-08-19T11:56:13;25.30;99.90
26270;DHT22;15937;50.612;6.656;2022-08-19T12:00:15;24.90;99.90
26270;DHT22;15937;50.612;6.656;2022-08-19T12:04:17;24.80;99.90
26270;DHT22;15937;50.612;6.656;2022-08-19T12:08:22;25.10;99.90
26270;DHT22;15937;50.612;6.656;2022-08-19T12:12:24;25.40;99.90
26270;DHT22;15937;50.612;6.656;2022-08-19T12:16:29;25.00;99.90
26270;DHT22;15937;50.612;6.656;2022-08-19T12:20:37;24.80;99.90
26270;DHT22;15937;50.612;6.656;2022-08-19T12:24:39;25.20;99.30
26270;DHT22;15937;50.612;6.656;2022-08-19T12:28:41;25.30;98.20
26270;DHT22;15937;50.612;6.656;2022-08-19T12:32:43;25.20;97.10
26270;DHT22;15937;50.612;6.656;2022-08-19T12:36:45;25.40;97.10
26270;DHT22;15937;50.612;6.656;2022-08-19T12:40:47;25.30;97.90
26270;DHT22;15937;50.612;6.656;2022-08-19T12:44:49;25.20;97.00
26270;DHT22;15937;50.612;6.656;2022-08-19T12:48:51;25.40;95.80
26270;DHT22;15937;50.612;6.656;2022-08-19T12:52:57;25.50;94.90
26270;DHT22;15937;50.612;6.656;2022-08-19T12:56:59;25.90;92.80
26270;DHT22;15937;50.612;6.656;2022-08-19T13:01:06;25.70;92.60
26270;DHT22;15937;50.612;6.656;2022-08-19T13:05:12;25.90;91.60
26270;DHT22;15937;50.612;6.656;2022-08-19T13:09:14;25.90;92.30
26270;DHT22;15937;50.612;6.656;2022-08-19T13:13:19;26.00;92.60
26270;DHT22;15937;50.612;6.656;2022-08-19T13:17:21;25.90;92.60
26270;DHT22;15937;50.612;6.656;2022-08-19T13:21:25;26.10;93.60
26270;DHT22;15937;50.612;6.656;2022-08-19T13:25:30;26.00;93.60
26270;DHT22;15937;50.612;6.656;2022-08-19T13:29:32;25.90;94.80
26270;DHT22;15937;50.612;6.656;2022-08-19T13:33:52;26.20;96.90
26270;DHT22;15937;50.612;6.656;2022-08-19T13:37:55;26.40;95.90
26270;DHT22;15937;50.612;6.656;2022-08-19T13:42:11;26.30;95.10
26270;DHT22;15937;50.612;6.656;2022-08-19T13:46:59;26.50;95.50
26270;DHT22;15937;50.612;6.656;2022-08-19T13:51:09;26.60;93.70
26270;DHT22;15937;50.612;6.656;2022-08-19T13:55:12;26.30;96.20
26270;DHT22;15937;50.612;6.656;2022-08-19T13:59:25;26.20;97.60
26270;DHT22;15937;50.612;6.656;2022-08-19T14:03:38;25.60;99.10
26270;DHT22;15937;50.612;6.656;2022-08-19T14:07:40;25.70;98.10
26270;DHT22;15937;50.612;6.656;2022-08-19T14:11:42;26.10;98.20
26270;DHT22;15937;50.612;6.656;2022-08-19T14:15:51;25.70;92.70
26270;DHT22;15937;50.612;6.656;2022-08-19T14:20:02;25.90;97.40
26270;DHT22;15937;50.612;6.656;2022-08-19T14:24:11;25.90;97.50
26270;DHT22;15937;50.612;6.656;2022-08-19T14:28:18;25.70;95.80
26270;DHT22;15937;50.612;6.656;2022-08-19T14:32:20;26.10;95.20
26270;DHT22;15937;50.612;6.656;2022-08-19T14:36:23;26.00;95.30
26270;DHT22;15937;50.612;6.656;2022-08-19T14:40:40;25.50;97.50
26270;DHT22;15937;50.612;6.656;2022-08-19T14:44:49;25.40;99.90
26270;DHT22;15937;50.612;6.656;2022-08-19T14:48:51;25.40;99.90
26270;DHT22;15937;50.612;6.656;2022-08-19T14:52:58;25.30;99.90
26270;DHT22;15937;50.612;6.656;2022-08-19T14:57:01;25.00;99.90
26270;DHT22;15937;50.612;6.656;2022-08-19T15:01:03;25.10;99.90
26270;DHT22;15937;50.612;6.656;2022-08-19T15:05:06;24.70;99.90
26270;DHT22;15937;50.612;6.656;2022-08-19T15:09:10;24.60;99.90
26270;DHT22;15937;50.612;6.656;2022-08-19T15:13:13;25.00;99.90
26270;DHT22;15937;50.612;6.656;2022-08-19T15:17:18;24.90;99.90
26270;DHT22;15937;50.612;6.656;2022-08-19T15:21:21;25.40;99.90
26270;DHT22;15937;50.612;6.656;2022-08-19T15:25:28;25.20;99.90
26270;DHT22;15937;50.612;6.656;2022-08-19T15:29:31;24.80;99.90
26270;DHT22;15937;50.612;6.656;2022-08-19T15:33:35;24.60;99.90
26270;DHT22;15937;50.612;6.656;2022-08-19T15:37:47;24.80;99.90
26270;DHT22;15937;50.612;6.656;2022-08-19T15:41:49;24.50;99.90
26270;DHT22;15937;50.612;6.656;2022-08-19T15:45:52;25.00;99.90
26270;DHT22;15937;50.612;6.656;2022-08-19T15:49:54;25.20;99.90
26270;DHT22;15937;50.612;6.656;2022-08-19T15:54:02;24.60;99.90
26270;DHT22;15937;50.612;6.656;2022-08-19T15:58:05;24.70;99.90
26270;DHT22;15937;50.612;6.656;2022-08-19T16:02:29;24.50;99.90
26270;DHT22;15937;50.612;6.656;2022-08-19T16:06:55;25.20;99.90
26270;DHT22;15937;50.612;6.656;2022-08-19T16:10:59;24.40;99.90
26270;DHT22;15937;50.612;6.656;2022-08-19T16:15:01;24.40;99.90
26270;DHT22;15937;50.612;6.656;2022-08-19T16:19:04;24.00;99.90
26270;DHT22;15937;50.612;6.656;2022-08-19T16:23:12;24.10;99.90
26270;DHT22;15937;50.612;6.656;2022-08-19T16:27:16;24.00;99.90
26270;DHT22;15937;50.612;6.656;2022-08-19T16:31:18;23.80;99.90
26270;DHT22;15937;50.612;6.656;2022-08-19T16:35:20;23.90;99.90
26270;DHT22;15937;50.612;6.656;2022-08-19T16:39:22;23.80;99.90
26270;DHT22;15937;50.612;6.656;2022-08-19T16:43:24;23.80;99.90
26270;DHT22;15937;50.612;6.656;2022-08-19T16:47:26;23.80;99.90
26270;DHT22;15937;50.612;6.656;2022-08-19T16:51:30;23.70;99.90
26270;DHT22;15937;50.612;6.656;2022-08-19T16:55:34;23.60;99.90
26270;DHT22;15937;50.612;6.656;2022-08-19T16:59:35;23.70;99.90
26270;DHT22;15937;50.612;6.656;2022-08-19T17:03:43;23.80;99.90
26270;DHT22;15937;50.612;6.656;2022-08-19T17:08:02;23.80;99.90
26270;DHT22;15937;50.612;6.656;2022-08-19T17:12:04;23.70;99.90
26270;DHT22;15937;50.612;6.656;2022-08-19T17:16:09;23.40;99.90
26270;DHT22;15937;50.612;6.656;2022-08-19T17:20:11;23.40;99.90
26270;DHT22;15937;50.612;6.656;2022-08-19T17:24:13;23.60;99.90
26270;DHT22;15937;50.612;6.656;2022-08-19T17:28:22;23.60;99.90
26270;DHT22;15937;50.612;6.656;2022-08-19T17:32:30;23.60;99.90
26270;DHT22;15937;50.612;6.656;2022-08-19T17:36:35;23.50;99.90
26270;DHT22;15937;50.612;6.656;2022-08-19T17:40:37;23.50;99.90
26270;DHT22;15937;50.612;6.656;2022-08-19T17:44:43;23.50;99.90
26270;DHT22;15937;50.612;6.656;2022-08-19T17:48:51;23.40;99.90
26270;DHT22;15937;50.612;6.656;2022-08-19T17:52:57;23.40;99.90
26270;DHT22;15937;50.612;6.656;2022-08-19T17:57:00;23.40;99.90
26270;DHT22;15937;50.612;6.656;2022-08-19T18:01:02;23.40;99.90
26270;DHT22;15937;50.612;6.656;2022-08-19T18:05:05;23.50;99.90
26270;DHT22;15937;50.612;6.656;2022-08-19T18:09:07;23.50;99.90
26270;DHT22;15937;50.612;6.656;2022-08-19T18:13:10;23.50;99.90
26270;DHT22;15937;50.612;6.656;2022-08-19T18:17:18;23.40;99.90
26270;DHT22;15937;50.612;6.656;2022-08-19T18:21:23;23.40;99.90
26270;DHT22;15937;50.612;6.656;2022-08-19T18:25:33;23.40;99.90
26270;DHT22;15937;50.612;6.656;2022-08-19T18:29:35;23.20;99.90
26270;DHT22;15937;50.612;6.656;2022-08-19T18:33:42;23.20;99.90
26270;DHT22;15937;50.612;6.656;2022-08-19T18:37:47;23.00;99.90
26270;DHT22;15937;50.612;6.656;2022-08-19T18:41:49;22.90;99.90
26270;DHT22;15937;50.612;6.656;2022-08-19T18:46:09;23.10;99.90
26270;DHT22;15937;50.612;6.656;2022-08-19T18:50:37;23.00;99.90
26270;DHT22;15937;50.612;6.656;2022-08-19T18:54:43;22.90;99.90
26270;DHT22;15937;50.612;6.656;2022-08-19T18:58:47;22.80;99.90
26270;DHT22;15937;50.612;6.656;2022-08-19T19:02:51;22.70;99.90
26270;DHT22;15937;50.612;6.656;2022-08-19T19:06:56;22.70;99.90
26270;DHT22;15937;50.612;6.656;2022-08-19T19:10:58;22.70;99.90
26270;DHT22;15937;50.612;6.656;2022-08-19T19:15:05;22.60;99.90
26270;DHT22;15937;50.612;6.656;2022-08-19T19:19:07;22.50;99.90
26270;DHT22;15937;50.612;6.656;2022-08-19T19:23:22;22.40;99.90
26270;DHT22;15937;50.612;6.656;2022-08-19T19:27:30;22.40;99.90
26270;DHT22;15937;50.612;6.656;2022-08-19T19:31:34;22.30;99.90
26270;DHT22;15937;50.612;6.656;2022-08-19T19:35:43;22.30;99.90
26270;DHT22;15937;50.612;6.656;2022-08-19T19:39:50;22.30;99.90
26270;DHT22;15937;50.612;6.656;2022-08-19T19:43:54;22.00;99.90
26270;DHT22;15937;50.612;6.656;2022-08-19T19:48:16;21.80;99.90
26270;DHT22;15937;50.612;6.656;2022-08-19T19:52:18;21.70;99.90
26270;DHT22;15937;50.612;6.656;2022-08-19T19:56:20;21.30;99.90
26270;DHT22;15937;50.612;6.656;2022-08-19T20:00:23;21.00;99.90
26270;DHT22;15937;50.612;6.656;2022-08-19T20:04:25;21.30;99.90
26270;DHT22;15937;50.612;6.656;2022-08-19T20:08:29;21.00;99.90
26270;DHT22;15937;50.612;6.656;2022-08-19T20:12:53;20.90;99.90
26270;DHT22;15937;50.612;6.656;2022-08-19T20:17:04;20.80;99.90
26270;DHT22;15937;50.612;6.656;2022-08-19T20:21:07;21.00;99.90
26270;DHT22;15937;50.612;6.656;2022-08-19T20:25:09;20.70;99.90
26270;DHT22;15937;50.612;6.656;2022-08-19T20:29:15;20.70;99.90
26270;DHT22;15937;50.612;6.656;2022-08-19T20:33:37;20.50;99.90
26270;DHT22;15937;50.612;6.656;2022-08-19T20:37:41;20.50;99.90
26270;DHT22;15937;50.612;6.656;2022-08-19T20:41:48;20.50;99.90
26270;DHT22;15937;50.612;6.656;2022-08-19T20:45:50;20.40;99.90
26270;DHT22;15937;50.612;6.656;2022-08-19T20:49:54;20.30;99.90
26270;DHT22;15937;50.612;6.656;2022-08-19T20:53:56;20.30;99.90
26270;DHT22;15937;50.612;6.656;2022-08-19T20:57:59;20.00;99.90
26270;DHT22;15937;50.612;6.656;2022-08-19T21:02:01;20.20;99.90
26270;DHT22;15937;50.612;6.656;2022-08-19T21:06:10;20.20;99.90
26270;DHT22;15937;50.612;6.656;2022-08-19T21:10:14;20.30;99.90
26270;DHT22;15937;50.612;6.656;2022-08-19T21:14:16;20.30;99.90
26270;DHT22;15937;50.612;6.656;2022-08-19T21:18:22;20.30;99.90
26270;DHT22;15937;50.612;6.656;2022-08-19T21:22:25;20.40;99.90
26270;DHT22;15937;50.612;6.656;2022-08-19T21:26:28;20.20;99.90
26270;DHT22;15937;50.612;6.656;2022-08-19T21:30:33;20.20;99.90
26270;DHT22;15937;50.612;6.656;2022-08-19T21:34:36;20.30;99.90
26270;DHT22;15937;50.612;6.656;2022-08-19T21:38:39;20.50;99.90
26270;DHT22;15937;50.612;6.656;2022-08-19T21:42:42;20.60;99.90
26270;DHT22;15937;50.612;6.656;2022-08-19T21:46:44;20.50;99.90
26270;DHT22;15937;50.612;6.656;2022-08-19T21:50:51;20.40;99.90
26270;DHT22;15937;50.612;6.656;2022-08-19T21:54:53;20.30;99.90
26270;DHT22;15937;50.612;6.656;2022-08-19T21:58:57;20.40;99.90
26270;DHT22;15937;50.612;6.656;2022-08-19T22:02:59;20.40;99.90
26270;DHT22;15937;50.612;6.656;2022-08-19T22:07:01;20.40;99.90
26270;DHT22;15937;50.612;6.656;2022-08-19T22:11:03;20.30;99.90
26270;DHT22;15937;50.612;6.656;2022-08-19T22:15:05;20.20;99.90
26270;DHT22;15937;50.612;6.656;2022-08-19T22:19:10;20.40;99.90
26270;DHT22;15937;50.612;6.656;2022-08-19T22:23:13;20.20;99.90
26270;DHT22;15937;50.612;6.656;2022-08-19T22:27:17;20.20;99.90
26270;DHT22;15937;50.612;6.656;2022-08-19T22:31:19;20.20;99.90
26270;DHT22;15937;50.612;6.656;2022-08-19T22:35:22;20.20;99.90
26270;DHT22;15937;50.612;6.656;2022-08-19T22:39:24;20.20;99.90
26270;DHT22;15937;50.612;6.656;2022-08-19T22:43:27;20.20;99.90
26270;DHT22;15937;50.612;6.656;2022-08-19T22:47:30;20.20;99.90
26270;DHT22;15937;50.612;6.656;2022-08-19T22:51:39;20.20;99.90
26270;DHT22;15937;50.612;6.656;2022-08-19T22:56:00;20.10;99.90
26270;DHT22;15937;50.612;6.656;2022-08-19T23:00:03;20.10;99.90
26270;DHT22;15937;50.612;6.656;2022-08-19T23:04:05;20.00;99.90
26270;DHT22;15937;50.612;6.656;2022-08-19T23:08:07;20.00;99.90
26270;DHT22;15937;50.612;6.656;2022-08-19T23:12:09;19.80;99.90
26270;DHT22;15937;50.612;6.656;2022-08-19T23:16:13;19.90;99.90
26270;DHT22;15937;50.612;6.656;2022-08-19T23:20:15;19.80;99.90
26270;DHT22;15937;50.612;6.656;2022-08-19T23:24:17;19.80;99.90
26270;DHT22;15937;50.612;6.656;2022-08-19T23:28:19;19.90;99.90
26270;DHT22;15937;50.612;6.656;2022-08-19T23:32:40;19.90;99.90
26270;DHT22;15937;50.612;6.656;2022-08-19T23:36:41;19.90;99.90
26270;DHT22;15937;50.612;6.656;2022-08-19T23:40:43;19.80;99.90
26270;DHT22;15937;50.612;6.656;2022-08-19T23:44:45;19.80;99.90
26270;DHT22;15937;50.612;6.656;2022-08-19T23:48:52;19.70;99.90
26270;DHT22;15937;50.612;6.656;2022-08-19T23:52:56;19.70;99.90
26270;DHT22;15937;50.612;6.656;2022-08-19T23:57:01;19.70;99.90
